Page Field
KFMY : now visible

Airfield :











YOU CAN JOIN US ON...

 
LOGIN :

Register | Disclaimer

   EN    FR    IT 

 









Legend :    VFR   Marginal VFR   IFR   Intensive IFR   Very Intensive IFR
Visi :
Ceiling :
>= 8 km
>= 3000ft
5 to 8 km
1000 to 3000 ft
1500m to 5 km
500 to 1000 ft
800 to 1500m
200 to 500 ft
< 800m
< 200 ft
Symbols :   Thunderstorms  Fog  Heavy snow  Heavy precipitations  Wind > 20 kt







- Airport Elevation : 17 ft


KFMY - Page Field

CURRENT METAR :
  • 181553Z 14013G19KT 10SM SCT035 BKN042 BKN055 28/21 A2999 RMK AO2 SLP156 T02830206

EXPIRED METARs :
  • 181453Z 14013G21KT 10SM FEW023 28/21 A2999 RMK AO2 SLP156 T02780206 50001
  • 181353Z 13009KT 10SM CLR 26/21 A2999 RMK AO2 SLP158 T02560206

TAF KFMY
Valid from the 18 at 12:00 until the 19 at 12:00 UTC


181136Z 1812/1912 11005KT P6SM FEW050
FM181500 13009KT P6SM FEW035 SCT200
FM181800 18008KT P6SM FEW080
FM190400 15008KT P6SM FEW050 SCT200
FM190900 17011G17KT P6SM BKN030 BKN130
KZMA FIR / North America



MET'MAP, your aeronautical weather chart ! - Copyright ORBIFLY December 2007 - Disclaimer

ORBIFLY MET'MAP TEAM :

Programming & Development : Alexandra Zaïnal
Concept & Development : Baudouin d'Aumeries
Co-Development & Prog : Marc-Olivier Méhu
Technical & hardware support : Manuel Goepfert

Contact : metmap@orbifly.com




SOURCES & CREDITS :

   NOAA       Earth
Advisory